Etusivu
METAR-TAF:

METAR-TAF

Lentoasemat :

Mitiga International Airport

Tripoli, Libya

Leveyspiiri: 32-54N, Pituuspiiri: 13-17E, korkeus merenpinnasta: 11 m

Tämänhetkinen sää

Tämä raportti tehtiin 29 minuuttia sitten, kello 14.55 UTC
Tuuli 10 kn pohjoisesta/koillisesta
Lämpötila 27°C
Kosteus 54%
Ilmanpaine 1017 hPa
Näkyvyys: 7000 m
Hajonneita pilviä 2500 ft:n korkeudessa

METAR: HLLM 201455Z 02010KT 7000 BKN025 27/17 Q1017

Aika: 17:24 (15:24 UTC)

Sääennuste

Tämä raportti tehtiin 4 tuntia ja 24 minuuttia sitten, kello 11.00 UTC
Ennuste voimassa 20. päivästä klo 12 UTC - 21. päivään klo 12 UTC
Tuuli 10 kn pohjoisesta/koillisesta
Näkyvyys: 8000 m
Hajanaisia pilviä 2500 ft:n korkeudessa
Tulossa
20. päivästä klo 16 UTC - 20. päivään klo 18 UTC
Tuuli 2 kn eri suunnista

TAF: HLLM 201100Z 2012/2112 02010KT 8000 SCT025 BECMG 2016/2018 VRB02KT

Säähavainnot ja -ennusteet yli 4000 lentoasemalta (METAR- ja TAF-raportit).

Käytössä olevat sääasemat on merkitty karttaan keltaisilla ja punaisilla pisteillä.

Aseta hiiri pisteen päälle nähdäksesi sääaseman nimen.

Klikkaa sitten nähdäksesi säähavainnot ja -ennusteet.

Kartan vaihtaminen: klikkaa mustalla rastilla varustettuja vihreitä pisteitä, niin voit zoomata sisään; viivalla varustettua vihreää pistettä, niin voit zoomata ulos tai vihreitä nuolia, niin pääset viereisille kartoille.


METAR-TAF: